Rechercher aéroport 
image banner adimage banner adimage banner ad
image banner ad

CA52 - Ports O'call

Situé à San Pedro, United States

ICAO - CA52, IATA -

Données fournies par Airmate  

Information générale

Coordonnées: N33°43'56" W118°16'34"
Élévation : 2 feet MSL.
Variation magnétique : 14° East
Voir autres Aéroports à California

Données opérationnelles

Special qualification required
Heure actuelle UTC:
Heure actuelle locale:
Météo à : KTOA - Zamperini Field ( 10 km )
METAR: KTOA 251449Z 26003KT 10SM BKN015 21/18 A3000
Voir NOTAMs / SUP AIP / TFR affectant cet aéroport [VIEW]
Fréquences de communication: [VIEW]

Pistes:

Coordonnées de l'aéroport

Adresse: San Pedro United States

Vue satellite de CA52